Time;durP1;ratioP1;P1;durP2;ratioP2;P2;SDS_P1;SDS_P2;PMS_P1;PMS_P2;Temp;Humidity;BMP_temperature;BMP_pressure;BME280_temperature;BME280_humidity;BME280_pressure;Samples;Min_cycle;Max_cycle;Signal;HPM_P1;HPM_P2
2021/12/22 00:00:13;;;;;;;24.07;12.68;;;;;;;-9.06;88.31;140084.30;1853633;77;22123;-56
2021/12/22 00:03:09;;;;;;;23.87;11.40;;;;;;;-9.12;88.29;140069.53;1853646;77;22602;-55
2021/12/22 00:05:46;;;;;;;24.20;13.65;;;;;;;-9.22;88.33;140044.89;1837904;77;28015;-55
2021/12/22 00:08:22;;;;;;;22.62;11.60;;;;;;;-9.36;88.28;140011.64;1835129;77;22133;-57
2021/12/22 00:10:58;;;;;;;26.45;12.33;;;;;;;-9.54;88.59;139967.27;1884491;76;22180;-55
2021/12/22 00:13:40;;;;;;;26.77;12.30;;;;;;;-9.64;89.00;139945.12;1853637;77;22163;-56
2021/12/22 00:16:15;;;;;;;28.40;13.70;;;;;;;-9.64;89.38;139943.84;1835079;77;22152;-56
2021/12/22 00:18:53;;;;;;;30.62;11.57;;;;;;;-9.63;89.46;139946.34;1835059;77;22157;-57
2021/12/22 00:21:30;;;;;;;27.62;12.00;;;;;;;-9.70;89.55;139929.09;1834835;77;22124;-55
2021/12/22 00:24:06;;;;;;;27.73;12.47;;;;;;;-9.77;89.84;139911.84;1853666;77;22156;-54
2021/12/22 00:26:42;;;;;;;23.90;12.20;;;;;;;-9.86;89.97;139892.16;1835012;77;22157;-54
2021/12/22 00:29:18;;;;;;;30.43;13.10;;;;;;;-9.90;90.35;139881.06;1834849;77;22586;-54
2021/12/22 00:32:15;;;;;;;28.15;12.95;;;;;;;-9.93;90.55;139874.91;1835031;77;22136;-56
2021/12/22 00:34:53;;;;;;;33.85;12.73;;;;;;;-10.01;90.76;139855.22;1853626;77;22559;-54
2021/12/22 00:37:47;;;;;;;28.35;12.23;;;;;;;-10.13;91.31;139825.66;1853610;77;22139;-55
2021/12/22 00:40:42;;;;;;;25.77;12.05;;;;;;;-10.20;91.63;139808.41;1800769;79;22183;-54
2021/12/22 00:43:18;;;;;;;21.17;9.43;;;;;;;-10.26;91.90;139796.09;1853552;77;22123;-55
2021/12/22 00:46:01;;;;;;;24.67;11.97;;;;;;;-10.30;92.18;139785.11;1853522;77;22227;-55
2021/12/22 00:48:36;;;;;;;20.40;9.53;;;;;;;-10.33;92.46;139777.69;1835016;77;22156;-55
2021/12/22 00:51:12;;;;;;;21.60;11.70;;;;;;;-10.35;92.71;139774.03;1853515;77;22166;-55
2021/12/22 00:53:47;;;;;;;20.37;9.88;;;;;;;-10.38;92.96;139766.66;1853645;77;22160;-54
2021/12/22 00:56:24;;;;;;;26.95;11.18;;;;;;;-10.42;93.21;139756.78;1843381;77;22185;-54
2021/12/22 00:59:18;;;;;;;21.50;10.53;;;;;;;-10.44;93.47;139751.86;1834945;77;22144;-54
2021/12/22 01:01:54;;;;;;;21.15;10.08;;;;;;;-10.45;93.71;139749.41;1853532;77;22168;-54
2021/12/22 01:04:30;;;;;;;21.27;10.08;;;;;;;-10.43;93.86;139754.34;1834747;77;22160;-55
2021/12/22 01:07:07;;;;;;;24.12;9.63;;;;;;;-10.45;93.87;139749.41;1853568;77;22539;-54
2021/12/22 01:09:43;;;;;;;24.02;9.60;;;;;;;-10.45;93.97;139749.41;1835041;77;22559;-54
2021/12/22 01:12:19;;;;;;;25.10;10.45;;;;;;;-10.41;94.09;139758.00;1853649;77;22614;-55
2021/12/22 01:14:54;;;;;;;18.85;8.78;;;;;;;-10.45;94.05;139748.19;1835077;77;22133;-55
2021/12/22 01:17:37;;;;;;;21.73;9.93;;;;;;;-10.44;94.29;139750.63;1835076;77;22148;-54
2021/12/22 01:20:39;;;;;;;19.25;9.25;;;;;;;-10.46;94.33;139745.70;1853662;77;22233;-54
2021/12/22 01:23:10;;;;;;;17.98;8.88;;;;;;;-10.49;94.38;139739.55;1835091;77;22152;-55
2021/12/22 01:25:49;;;;;;;20.23;9.58;;;;;;;-10.51;94.55;139735.84;1834784;77;22195;-54
2021/12/22 01:28:26;;;;;;;14.78;7.87;;;;;;;-10.58;94.61;139717.38;1835031;77;22128;-53
2021/12/22 01:31:03;;;;;;;21.75;8.95;;;;;;;-10.61;94.85;139710.00;1834978;77;22172;-55
2021/12/22 01:33:45;;;;;;;19.05;8.00;;;;;;;-10.60;95.04;139713.72;1853519;77;22155;-53
2021/12/22 01:36:21;;;;;;;22.17;9.78;;;;;;;-10.61;95.05;139711.22;1853513;77;22196;-53
2021/12/22 01:39:15;;;;;;;17.00;7.22;;;;;;;-10.55;95.13;139726.03;1835013;77;22128;-55
2021/12/22 01:41:52;;;;;;;16.40;7.70;;;;;;;-10.56;94.94;139722.31;1835098;77;22131;-54
2021/12/22 01:51:09;;;;;;;17.77;7.67;;;;;;;-10.72;95.04;139685.41;1853459;77;22228;-54
2021/12/22 01:54:14;;;;;;;17.55;8.45;;;;;;;-10.76;95.20;139674.31;1834965;77;22547;-54
2021/12/22 01:57:09;;;;;;;16.02;7.40;;;;;;;-10.78;95.30;139669.44;1853538;77;22123;-54
2021/12/22 02:00:02;;;;;;;20.37;9.15;;;;;;;-10.82;95.37;139660.80;1834939;77;22160;-55
2021/12/22 02:03:02;;;;;;;17.75;7.40;;;;;;;-10.80;95.47;139664.50;1853482;77;22188;-56
2021/12/22 02:05:58;;;;;;;14.47;8.63;;;;;;;-10.80;95.48;139665.72;1827239;77;22212;-56
2021/12/22 02:08:44;;;;;;;17.62;8.03;;;;;;;-10.80;95.50;139665.72;1834768;77;22152;-55
2021/12/22 02:11:21;;;;;;;15.28;7.05;;;;;;;-10.82;95.41;139660.80;1835031;77;22124;-57
2021/12/22 02:14:15;;;;;;;14.35;7.10;;;;;;;-10.81;95.53;139663.28;1834983;77;22125;-56
2021/12/22 02:16:52;;;;;;;18.27;8.40;;;;;;;-10.78;95.52;139670.66;1853540;77;22283;-55
2021/12/22 02:19:27;;;;;;;21.25;8.20;;;;;;;-10.74;95.50;139680.47;1853616;77;22574;-56
2021/12/22 02:22:22;;;;;;;15.25;7.10;;;;;;;-10.71;95.27;139687.89;1835029;77;22136;-56
2021/12/22 02:25:20;;;;;;;16.60;7.58;;;;;;;-10.74;95.08;139680.47;1835005;77;22152;-56
2021/12/22 02:27:55;;;;;;;16.73;8.18;;;;;;;-10.78;95.02;139670.66;1834980;77;22235;-56
2021/12/22 02:30:51;;;;;;;17.42;7.50;;;;;;;-10.81;95.04;139663.28;1827222;77;22217;-59
2021/12/22 02:33:39;;;;;;;15.68;7.97;;;;;;;-10.81;95.01;139663.28;1834809;77;22172;-57
2021/12/22 02:36:39;;;;;;;16.87;7.80;;;;;;;-10.75;95.05;139678.03;1842994;77;22212;-57
2021/12/22 02:39:10;;;;;;;17.07;8.03;;;;;;;-10.72;94.83;139684.19;1853545;77;22160;-57
2021/12/22 02:41:45;;;;;;;16.50;7.90;;;;;;;-10.63;95.08;139706.34;1835157;77;20207;-56
2021/12/22 02:44:39;;;;;;;15.95;7.87;;;;;;;-10.51;94.91;139734.63;1834950;77;22132;-57
2021/12/22 02:47:25;;;;;;;15.45;7.97;;;;;;;-10.44;94.50;139751.86;1834174;77;22133;-55
2021/12/22 02:50:01;;;;;;;16.32;7.95;;;;;;;-10.46;94.08;139746.92;1835024;77;22153;-56
2021/12/22 02:53:10;;;;;;;14.55;7.78;;;;;;;-10.60;93.61;139713.72;1815863;79;22646;-54
2021/12/22 02:58:51;;;;;;;12.73;6.97;;;;;;;-10.92;93.80;139636.19;1853518;77;22136;-55
2021/12/22 03:04:33;;;;;;;17.55;7.95;;;;;;;-11.07;94.02;139599.30;1853516;77;22135;-53
2021/12/22 03:07:29;;;;;;;17.17;8.80;;;;;;;-11.09;93.98;139594.37;1818594;77;38356;-54
2021/12/22 03:10:22;;;;;;;16.37;8.30;;;;;;;-11.06;93.81;139601.78;1819075;77;27985;-53
2021/12/22 03:13:16;;;;;;;17.65;7.62;;;;;;;-11.00;93.65;139617.75;1834732;77;22587;-55
2021/12/22 03:16:11;;;;;;;13.68;6.65;;;;;;;-11.05;93.33;139605.45;1834462;77;22153;-55
2021/12/22 03:18:47;;;;;;;17.17;7.40;;;;;;;-11.12;93.19;139587.00;1853385;77;22158;-54
2021/12/22 03:21:23;;;;;;;13.13;6.62;;;;;;;-11.18;93.14;139573.48;1834561;77;22132;-53
2021/12/22 03:24:20;;;;;;;17.32;7.97;;;;;;;-11.31;92.97;139542.75;1834627;77;22180;-54
2021/12/22 03:26:59;;;;;;;17.02;7.65;;;;;;;-11.25;93.40;139557.48;1834787;77;22168;-53
2021/12/22 03:29:52;;;;;;;14.05;7.08;;;;;;;-11.16;93.18;139579.62;1834929;77;22156;-54
2021/12/22 03:32:27;;;;;;;15.95;8.18;;;;;;;-11.09;93.02;139594.37;1819405;77;28445;-54
2021/12/22 03:35:03;;;;;;;16.50;7.92;;;;;;;-11.03;92.67;139609.16;1853677;77;22131;-54
2021/12/22 03:37:59;;;;;;;17.70;8.43;;;;;;;-10.93;92.49;139633.75;1834937;77;22136;-54
2021/12/22 03:40:34;;;;;;;13.15;6.90;;;;;;;-10.92;92.01;139636.19;1853576;77;22160;-54
2021/12/22 03:43:10;;;;;;;16.23;8.00;;;;;;;-10.92;91.72;139636.19;1834799;77;22209;-55
2021/12/22 03:45:47;;;;;;;14.90;7.25;;;;;;;-10.82;91.71;139660.80;1834791;77;22147;-55
2021/12/22 03:48:25;;;;;;;11.65;7.00;;;;;;;-10.71;91.45;139687.89;1834805;77;22205;-55
2021/12/22 03:51:26;;;;;;;14.65;7.10;;;;;;;-10.65;90.72;139701.41;1815900;79;22179;-56
2021/12/22 03:54:01;;;;;;;19.35;8.45;;;;;;;-10.61;90.26;139711.22;1853573;77;22128;-55
2021/12/22 03:56:36;;;;;;;15.85;7.80;;;;;;;-10.63;89.79;139705.08;1853539;77;22131;-55
2021/12/22 03:59:36;;;;;;;16.95;7.03;;;;;;;-10.56;90.21;139723.53;1834135;77;22140;-56
2021/12/22 04:02:12;;;;;;;16.70;8.60;;;;;;;-10.46;89.92;139745.70;1835022;77;22136;-54
2021/12/22 04:05:08;;;;;;;18.40;8.40;;;;;;;-10.32;89.79;139780.19;1834937;77;22156;-56
2021/12/22 04:07:43;;;;;;;17.32;7.70;;;;;;;-10.29;89.28;139787.56;1853565;77;22164;-56
2021/12/22 04:10:22;;;;;;;16.75;7.75;;;;;;;-10.28;88.94;139791.27;1853540;77;22127;-54
2021/12/22 04:12:57;;;;;;;13.15;7.05;;;;;;;-10.22;88.99;139803.53;1853681;77;22123;-55
2021/12/22 04:15:51;;;;;;;17.98;7.58;;;;;;;-10.30;88.24;139785.11;1853389;77;22186;-55
2021/12/22 04:18:45;;;;;;;15.45;6.67;;;;;;;-10.44;88.08;139751.86;1803570;77;22168;-54
2021/12/22 04:21:20;;;;;;;13.25;6.50;;;;;;;-10.54;87.97;139727.25;1835082;77;22124;-54
2021/12/22 04:24:16;;;;;;;17.80;7.90;;;;;;;-10.69;87.96;139690.33;1834751;77;22200;-55
2021/12/22 04:26:51;;;;;;;18.98;7.45;;;;;;;-10.86;88.20;139650.98;1853638;77;22156;-55
2021/12/22 04:29:45;;;;;;;12.73;7.30;;;;;;;-10.95;88.53;139630.05;1853533;77;22172;-56
2021/12/22 04:32:22;;;;;;;12.95;7.65;;;;;;;-11.01;88.76;139614.09;1834765;77;22163;-55
2021/12/22 04:34:57;;;;;;;16.27;8.30;;;;;;;-11.03;89.00;139609.16;1837796;77;28372;-56
2021/12/22 04:37:32;;;;;;;16.42;7.97;;;;;;;-11.01;89.08;139615.31;1834983;77;22132;-54
2021/12/22 04:40:10;;;;;;;12.88;6.80;;;;;;;-11.05;89.19;139604.22;1853666;77;22725;-55
2021/12/22 04:43:06;;;;;;;15.78;7.28;;;;;;;-11.02;89.42;139611.59;1853448;77;22601;-54
2021/12/22 04:45:41;;;;;;;18.12;7.20;;;;;;;-10.98;89.19;139621.45;1853569;77;22566;-56
2021/12/22 04:48:37;;;;;;;15.93;8.83;;;;;;;-11.02;89.26;139611.59;1837770;77;28444;-55
2021/12/22 04:51:34;;;;;;;15.23;6.60;;;;;;;-10.88;89.17;139646.06;1834764;77;22161;-56
2021/12/22 04:54:34;;;;;;;15.90;6.85;;;;;;;-10.91;88.93;139638.69;1834695;77;22209;-54
2021/12/22 04:57:06;;;;;;;15.28;7.45;;;;;;;-10.89;89.03;139642.34;1834893;77;22120;-55
2021/12/22 04:59:40;;;;;;;16.60;7.25;;;;;;;-10.93;88.79;139633.75;1835173;77;22208;-55
2021/12/22 05:02:15;;;;;;;16.65;7.20;;;;;;;-10.99;88.68;139620.23;1853690;77;22139;-53
2021/12/22 05:04:50;;;;;;;15.65;8.20;;;;;;;-11.01;88.74;139615.31;1853610;77;22132;-53
2021/12/22 05:07:47;;;;;;;15.78;7.83;;;;;;;-10.97;88.76;139623.89;1834940;77;22144;-56
2021/12/22 05:10:28;;;;;;;17.10;7.45;;;;;;;-10.90;88.57;139639.91;1853627;77;22558;-55
2021/12/22 05:13:21;;;;;;;14.05;6.83;;;;;;;-10.97;88.48;139623.89;1834969;77;22164;-55
2021/12/22 05:16:18;;;;;;;17.10;6.67;;;;;;;-10.96;88.58;139626.38;1835041;77;22551;-56
2021/12/22 05:19:11;;;;;;;12.63;6.55;;;;;;;-10.98;88.34;139621.45;1853574;77;22125;-56
2021/12/22 05:21:36;;;;;;;12.40;7.03;;;;;;;-10.94;88.72;139631.27;1835024;77;22153;-55
2021/12/22 05:24:30;;;;;;;15.32;7.35;;;;;;;-10.87;88.61;139648.50;1843362;78;22156;-55
2021/12/22 05:27:08;;;;;;;13.05;5.45;;;;;;;-10.83;88.41;139658.36;1843533;77;22535;-57
2021/12/22 05:29:41;;;;;;;15.63;6.60;;;;;;;-10.86;88.08;139649.72;1853503;77;22135;-56
2021/12/22 05:32:17;;;;;;;18.65;9.23;;;;;;;-10.88;88.35;139646.06;1819325;77;28003;-53
2021/12/22 05:35:02;;;;;;;15.35;7.20;;;;;;;-10.80;88.21;139665.72;1853568;77;22199;-53
2021/12/22 05:37:43;;;;;;;15.45;8.00;;;;;;;-10.73;87.95;139682.97;1853514;77;22631;-54
2021/12/22 05:40:38;;;;;;;16.62;7.97;;;;;;;-10.76;87.79;139675.59;1834742;77;22160;-53
2021/12/22 05:43:33;;;;;;;13.32;6.25;;;;;;;-10.79;87.61;139666.94;1834902;77;22132;-52
2021/12/22 05:46:08;;;;;;;15.65;8.95;;;;;;;-10.78;87.67;139669.44;1819420;77;27985;-53
2021/12/22 05:48:44;;;;;;;14.53;6.47;;;;;;;-10.66;87.70;139697.70;1834992;77;22164;-54
2021/12/22 05:51:21;;;;;;;16.62;7.35;;;;;;;-10.58;87.38;139717.38;1853578;77;22155;-53
2021/12/22 05:54:15;;;;;;;16.93;7.60;;;;;;;-10.61;87.07;139711.22;1834968;77;20357;-53
2021/12/22 05:57:10;;;;;;;14.20;6.05;;;;;;;-10.57;87.15;139721.09;1834943;77;22128;-52
2021/12/22 05:59:46;;;;;;;13.48;6.62;;;;;;;-10.53;86.80;139729.69;1834766;77;22185;-52
2021/12/22 06:02:21;;;;;;;18.87;6.45;;;;;;;-10.54;86.41;139727.25;1834814;77;22133;-55
2021/12/22 06:05:18;;;;;;;11.57;5.30;;;;;;;-10.49;86.37;139739.55;1853446;77;22633;-55
2021/12/22 06:07:52;;;;;;;8.50;4.58;;;;;;;-10.55;85.91;139726.03;1853459;77;22147;-55
2021/12/22 06:10:45;;;;;;;11.38;5.35;;;;;;;-10.52;85.89;139732.17;1832210;77;22140;-56
2021/12/22 06:13:39;;;;;;;9.90;4.00;;;;;;;-10.37;86.06;139769.09;1821501;77;22175;-56
2021/12/22 06:16:33;;;;;;;7.15;4.25;;;;;;;-10.19;84.26;139810.91;1817125;77;22176;-56
2021/12/22 06:19:15;;;;;;;7.47;4.30;;;;;;;-9.93;84.28;139874.91;1811837;77;22229;-57
2021/12/22 06:21:50;;;;;;;8.98;5.45;;;;;;;-9.59;83.16;139956.22;1819397;77;28484;-57
2021/12/22 06:24:26;;;;;;;10.75;5.10;;;;;;;-9.07;82.84;140080.62;1834931;77;22160;-57
2021/12/22 06:27:07;;;;;;;35.35;18.10;;;;;;;-8.58;80.94;140200.17;1834102;77;22623;-57
2021/12/22 06:29:42;;;;;;;38.67;18.20;;;;;;;-8.16;78.28;140300.05;1834966;77;22144;-56
2021/12/22 06:32:17;;;;;;;15.88;8.75;;;;;;;-7.81;77.06;140385.17;1834965;77;22152;-56
2021/12/22 06:35:11;;;;;;;19.02;9.58;;;;;;;-7.64;74.44;140427.09;1853577;77;22155;-56
2021/12/22 06:38:05;;;;;;;9.13;4.30;;;;;;;-7.62;72.43;140430.81;1853435;77;22155;-56
2021/12/22 06:40:41;;;;;;;15.58;6.75;;;;;;;-7.57;71.77;140443.16;1853549;77;22123;-57
2021/12/22 06:43:35;;;;;;;13.22;6.72;;;;;;;-7.55;71.74;140446.88;1853490;77;22570;-56
2021/12/22 06:46:31;;;;;;;13.88;7.22;;;;;;;-7.15;70.75;140543.13;1834783;77;22167;-64
2021/12/22 06:49:06;;;;;;;11.30;6.37;;;;;;;-6.74;70.20;140641.91;1800688;79;22183;-58
2021/12/22 06:51:41;;;;;;;11.25;5.65;;;;;;;-6.17;69.45;140781.53;1834946;77;22136;-58
2021/12/22 06:54:16;;;;;;;10.90;6.65;;;;;;;-5.56;68.39;140927.38;1834957;77;22140;-57
2021/12/22 06:56:56;;;;;;;13.30;5.25;;;;;;;-5.69;65.37;140896.45;1853535;77;22160;-57
2021/12/22 06:59:32;;;;;;;11.85;5.22;;;;;;;-6.15;66.03;140785.25;1835010;77;22559;-57
2021/12/22 07:02:36;;;;;;;13.05;5.58;;;;;;;-6.08;65.46;140802.56;1831250;77;22220;-57
2021/12/22 07:05:11;;;;;;;11.48;5.40;;;;;;;-6.01;65.56;140819.83;1853621;77;22155;-57
2021/12/22 07:07:46;;;;;;;10.78;4.95;;;;;;;-6.16;65.74;140782.75;1843382;77;22156;-57
2021/12/22 07:10:21;;;;;;;15.35;6.30;;;;;;;-6.38;65.56;140730.88;1834966;77;20214;-57
2021/12/22 07:12:56;;;;;;;9.10;4.70;;;;;;;-7.01;65.94;140577.72;1834929;77;22211;-56
2021/12/22 07:15:31;;;;;;;9.00;4.37;;;;;;;-7.54;67.23;140450.55;1835000;77;22164;-56
2021/12/22 07:18:10;;;;;;;11.50;5.50;;;;;;;-7.85;68.75;140375.28;1834975;77;22132;-56
2021/12/22 07:21:06;;;;;;;12.78;5.00;;;;;;;-8.00;69.67;140338.28;1833847;77;22251;-57
2021/12/22 07:23:59;;;;;;;10.93;5.37;;;;;;;-8.15;70.23;140303.72;1834908;77;22160;-56
2021/12/22 07:26:34;;;;;;;10.75;5.25;;;;;;;-8.39;70.58;140244.59;1843565;77;22128;-57
2021/12/22 07:29:15;;;;;;;10.25;5.65;;;;;;;-8.50;71.71;140217.44;1834168;77;22180;-58
2021/12/22 07:31:51;;;;;;;13.50;6.10;;;;;;;-8.60;71.87;140195.28;1834928;77;22129;-56
2021/12/22 07:34:39;;;;;;;13.35;5.60;;;;;;;-8.62;72.48;140189.11;1834999;77;22160;-57
2021/12/22 07:38:09;;;;;;;14.30;5.90;;;;;;;-8.59;72.92;140197.72;1834971;77;22578;-56
2021/12/22 07:40:44;;;;;;;13.00;5.97;;;;;;;-8.50;72.81;140218.67;1835104;77;22160;-57
2021/12/22 07:43:19;;;;;;;18.57;7.15;;;;;;;-8.48;73.17;140223.61;1835013;77;22160;-56
2021/12/22 07:45:55;;;;;;;34.03;16.02;;;;;;;-8.59;72.77;140196.50;1819431;77;28014;-57
2021/12/22 07:48:31;;;;;;;12.65;6.28;;;;;;;-8.69;73.22;140173.06;1834828;77;22136;-56
2021/12/22 07:51:06;;;;;;;18.23;9.33;;;;;;;-8.74;73.32;140160.75;1835013;77;22152;-56
2021/12/22 07:54:01;;;;;;;11.45;6.12;;;;;;;-8.77;73.50;140153.36;1836279;77;22227;-57
2021/12/22 07:56:41;;;;;;;16.77;8.00;;;;;;;-8.84;73.72;140136.09;1834999;77;22157;-58
2021/12/22 07:59:35;;;;;;;10.48;6.17;;;;;;;-8.88;73.80;140126.22;1853559;77;22135;-57
2021/12/22 08:02:30;;;;;;;13.35;6.50;;;;;;;-8.78;74.24;140150.86;1834800;77;22163;-58
2021/12/22 08:05:24;;;;;;;12.23;6.22;;;;;;;-8.73;74.27;140163.19;1834834;77;22132;-57
2021/12/22 08:08:00;;;;;;;14.10;7.35;;;;;;;-8.57;73.15;140201.44;1819385;77;27965;-56
2021/12/22 08:10:36;;;;;;;17.35;7.30;;;;;;;-8.25;72.49;140277.83;1853566;77;22156;-57
2021/12/22 08:13:11;;;;;;;29.18;12.13;;;;;;;-7.56;71.46;140444.38;1835009;77;22132;-57
2021/12/22 08:16:06;;;;;;;13.83;5.15;;;;;;;-6.70;68.61;140653.03;1834985;77;22193;-57
2021/12/22 08:18:41;;;;;;;10.63;5.67;;;;;;;-6.10;67.06;140796.39;1819376;77;28005;-57
2021/12/22 08:21:16;;;;;;;8.48;5.50;;;;;;;-5.63;64.63;140911.28;1853553;77;22156;-58
2021/12/22 08:23:51;;;;;;;9.50;4.75;;;;;;;-5.46;62.69;140952.09;1835030;77;22148;-58
2021/12/22 08:26:27;;;;;;;12.23;5.50;;;;;;;-5.73;61.40;140886.55;1853516;77;22136;-56
2021/12/22 08:29:03;;;;;;;9.40;4.50;;;;;;;-5.78;61.14;140875.41;1834954;77;22200;-57
2021/12/22 08:32:05;;;;;;;9.93;4.60;;;;;;;-5.86;60.05;140854.41;1834118;77;22200;-57
2021/12/22 08:34:42;;;;;;;12.65;5.28;;;;;;;-6.04;60.52;140812.42;1853588;77;22627;-57
2021/12/22 08:40:17;;;;;;;14.07;5.22;;;;;;;-6.43;61.10;140718.53;1834840;77;22179;-56
2021/12/22 08:43:12;;;;;;;10.45;4.47;;;;;;;-6.54;62.71;140691.31;1834790;77;22144;-57
2021/12/22 08:45:48;;;;;;;13.75;6.22;;;;;;;-6.65;62.37;140665.39;1834826;77;22574;-57
2021/12/22 08:48:25;;;;;;;9.08;4.60;;;;;;;-6.89;63.03;140607.36;1853489;77;22158;-57
2021/12/22 08:51:06;;;;;;;11.85;5.87;;;;;;;-7.01;62.74;140578.94;1834272;77;22169;-57
2021/12/22 08:54:00;;;;;;;13.22;6.20;;;;;;;-7.18;63.75;140535.72;1853560;77;22128;-56
2021/12/22 08:56:55;;;;;;;10.80;5.45;;;;;;;-7.23;64.31;140525.83;1853493;77;22135;-56
2021/12/22 08:59:30;;;;;;;11.80;6.03;;;;;;;-7.19;64.60;140533.28;1835020;77;22161;-57
2021/12/22 09:02:05;;;;;;;11.95;5.65;;;;;;;-7.09;65.10;140557.97;1834991;77;22132;-57
2021/12/22 09:04:40;;;;;;;10.28;5.45;;;;;;;-6.97;65.12;140587.61;1853560;77;22155;-57
2021/12/22 09:07:15;;;;;;;10.43;5.47;;;;;;;-7.11;65.20;140553.02;1835043;77;22164;-58
2021/12/22 09:09:50;;;;;;;11.57;6.58;;;;;;;-7.30;65.57;140508.59;1853551;77;22127;-59
2021/12/22 09:12:27;;;;;;;15.30;6.90;;;;;;;-7.28;66.11;140512.27;1853553;77;22132;-58
2021/12/22 09:15:00;;;;;;;11.63;5.33;;;;;;;-7.26;66.35;140518.44;1835181;77;22563;-57
2021/12/22 09:17:35;;;;;;;12.78;5.50;;;;;;;-7.39;66.18;140486.34;1834995;77;22547;-57
2021/12/22 09:20:11;;;;;;;15.10;6.22;;;;;;;-7.66;66.04;140420.92;1853523;77;22156;-57
2021/12/22 09:22:46;;;;;;;12.45;5.83;;;;;;;-7.93;67.07;140356.78;1848277;77;22143;-56
2021/12/22 09:25:21;;;;;;;9.08;5.15;;;;;;;-7.98;67.23;140343.22;1835061;77;22136;-57
2021/12/22 09:27:58;;;;;;;11.85;5.37;;;;;;;-7.95;67.36;140350.61;1853545;77;22136;-58
2021/12/22 09:30:36;;;;;;;10.28;5.33;;;;;;;-8.06;67.34;140324.72;1834768;77;22156;-57
2021/12/22 09:33:16;;;;;;;11.43;6.33;;;;;;;-8.15;68.00;140303.72;1834804;77;22188;-58
2021/12/22 09:36:13;;;;;;;13.90;6.67;;;;;;;-8.09;68.76;140317.28;1834836;77;22153;-57
2021/12/22 09:38:48;;;;;;;16.30;6.60;;;;;;;-8.05;68.93;140325.94;1834225;77;22157;-57
2021/12/22 09:41:41;;;;;;;12.18;6.60;;;;;;;-8.07;69.26;140323.44;1853513;77;22160;-57
2021/12/22 09:44:44;;;;;;;17.40;10.30;;;;;;;-8.25;69.37;140279.05;1819144;77;28421;-57
2021/12/22 09:47:27;;;;;;;16.10;6.55;;;;;;;-8.32;70.40;140261.78;1835015;77;22259;-58
2021/12/22 09:53:06;;;;;;;15.90;6.83;;;;;;;-8.18;71.82;140296.33;1853484;77;22187;-57
2021/12/22 09:56:00;;;;;;;14.75;6.80;;;;;;;-8.15;70.79;140303.72;1834882;77;22159;-57
2021/12/22 09:58:54;;;;;;;16.57;6.42;;;;;;;-8.25;70.41;140279.05;1835013;77;22156;-56
2021/12/22 10:01:48;;;;;;;12.50;5.15;;;;;;;-8.24;70.54;140280.28;1834906;77;22153;-57
2021/12/22 10:04:23;;;;;;;14.07;5.92;;;;;;;-8.31;70.30;140264.27;1853550;77;22155;-57
2021/12/22 10:07:01;;;;;;;13.40;5.37;;;;;;;-8.42;70.53;140238.44;1834697;77;22183;-57
2021/12/22 10:09:47;;;;;;;11.50;4.97;;;;;;;-8.40;70.53;140242.09;1835014;77;22152;-58
2021/12/22 10:12:43;;;;;;;16.48;5.97;;;;;;;-8.32;70.39;140261.78;1853468;77;22156;-57
2021/12/22 10:15:19;;;;;;;11.15;5.35;;;;;;;-8.36;70.28;140251.94;1853547;77;22127;-58
2021/12/22 10:17:59;;;;;;;10.15;5.40;;;;;;;-8.35;69.78;140254.39;1853523;77;22598;-57
2021/12/22 10:20:34;;;;;;;8.50;5.05;;;;;;;-8.40;70.14;140242.09;1834997;77;22133;-57
2021/12/22 10:23:31;;;;;;;9.60;5.40;;;;;;;-8.37;70.03;140249.44;1834971;77;22168;-56
2021/12/22 10:26:27;;;;;;;13.45;6.25;;;;;;;-8.47;70.40;140224.83;1838749;77;22182;-56
2021/12/22 10:29:08;;;;;;;11.22;5.65;;;;;;;-8.45;70.82;140229.77;1853511;77;22131;-57
2021/12/22 10:31:50;;;;;;;12.28;5.72;;;;;;;-8.37;70.84;140249.44;1853779;77;22303;-57
2021/12/22 10:35:00;;;;;;;11.57;6.28;;;;;;;-8.30;70.93;140267.94;1834015;77;22680;-56
2021/12/22 10:37:48;;;;;;;10.48;5.28;;;;;;;-8.24;71.30;140281.55;1834994;77;22161;-57
2021/12/22 10:40:34;;;;;;;11.95;6.33;;;;;;;-8.11;71.53;140312.38;1853543;77;22590;-56
2021/12/22 10:43:29;;;;;;;10.65;5.75;;;;;;;-7.84;71.74;140377.73;1834898;77;20150;-56
2021/12/22 10:46:26;;;;;;;15.30;5.70;;;;;;;-7.67;70.93;140419.69;1835077;77;22238;-56
2021/12/22 10:49:20;;;;;;;12.45;5.67;;;;;;;-7.78;70.31;140392.56;1853806;77;22215;-57
2021/12/22 10:52:03;;;;;;;10.53;5.37;;;;;;;-7.88;70.23;140367.89;1834830;77;22634;-57
2021/12/22 10:55:12;;;;;;;11.70;5.15;;;;;;;-8.00;70.49;140338.28;1853589;77;22160;-57
2021/12/22 10:58:00;;;;;;;9.25;5.17;;;;;;;-7.94;69.98;140353.06;1835004;77;22156;-57
2021/12/22 11:01:20;;;;;;;9.98;4.92;;;;;;;-7.89;69.92;140365.41;1835011;77;22157;-56
2021/12/22 11:04:06;;;;;;;12.13;5.05;;;;;;;-7.88;69.53;140367.89;1835163;77;20207;-57
2021/12/22 11:06:41;;;;;;;11.50;5.72;;;;;;;-7.76;69.56;140397.52;1853646;77;22128;-57
2021/12/22 11:09:36;;;;;;;14.35;6.45;;;;;;;-7.63;69.28;140428.36;1835049;77;22148;-57
2021/12/22 11:12:14;;;;;;;11.68;6.45;;;;;;;-7.64;68.75;140427.09;1819406;77;28424;-56
2021/12/22 11:14:51;;;;;;;13.10;6.67;;;;;;;-7.75;68.71;140399.97;1834658;77;22176;-56
2021/12/22 11:17:38;;;;;;;10.80;5.15;;;;;;;-7.77;68.83;140395.02;1853549;77;22209;-57
2021/12/22 11:20:13;;;;;;;9.63;5.30;;;;;;;-7.72;68.49;140406.12;1835018;77;22136;-56
2021/12/22 11:25:30;;;;;;;10.72;5.62;;;;;;;-7.90;69.06;140364.17;1853561;77;22647;-56
2021/12/22 11:28:24;;;;;;;15.20;6.28;;;;;;;-8.04;69.55;140328.39;1834965;77;22132;-57
2021/12/22 11:31:00;;;;;;;9.68;5.03;;;;;;;-7.88;69.74;140367.89;1834988;77;22160;-57
2021/12/22 11:33:57;;;;;;;9.83;5.08;;;;;;;-7.79;69.12;140390.06;1834769;77;22159;-57
2021/12/22 11:36:51;;;;;;;11.53;6.20;;;;;;;-7.99;69.59;140341.94;1835045;77;22181;-57
2021/12/22 11:39:26;;;;;;;15.83;7.95;;;;;;;-7.93;70.06;140355.56;1819359;77;27987;-56
2021/12/22 11:42:07;;;;;;;14.33;6.30;;;;;;;-7.78;70.31;140392.56;1853538;77;22152;-56
2021/12/22 11:45:10;;;;;;;14.47;5.40;;;;;;;-7.72;69.97;140407.34;1853519;77;22135;-57
2021/12/22 11:48:04;;;;;;;14.83;5.97;;;;;;;-7.58;70.00;140439.44;1834972;77;22140;-56
2021/12/22 11:50:47;;;;;;;10.38;6.05;;;;;;;-7.75;69.65;140399.97;1819369;77;27994;-58
2021/12/22 11:53:23;;;;;;;9.60;5.10;;;;;;;-7.55;70.24;140446.88;1834980;77;22152;-57
2021/12/22 11:55:59;;;;;;;9.40;4.62;;;;;;;-7.57;69.30;140441.92;1835016;77;22132;-57
2021/12/22 11:58:35;;;;;;;14.40;5.33;;;;;;;-7.55;69.75;140446.88;1835129;77;22161;-56
2021/12/22 12:01:12;;;;;;;16.12;7.55;;;;;;;-7.55;69.44;140448.09;1834783;77;22152;-58
2021/12/22 12:04:15;;;;;;;10.68;5.22;;;;;;;-7.55;69.53;140446.88;1834949;77;22156;-56
2021/12/22 12:06:51;;;;;;;8.63;4.47;;;;;;;-7.54;69.28;140449.31;1853510;77;22558;-57
2021/12/22 12:09:47;;;;;;;7.33;3.58;;;;;;;-7.58;68.61;140439.44;1834949;77;22153;-57
2021/12/22 12:12:51;;;;;;;8.53;4.53;;;;;;;-7.80;68.43;140386.41;1834852;77;22140;-57
2021/12/22 12:22:21;;;;;;;9.10;4.90;;;;;;;-8.07;69.42;140323.44;1814790;77;22184;-56
2021/12/22 12:25:01;;;;;;;8.65;4.30;;;;;;;-8.10;70.06;140314.83;1834739;77;22186;-56
2021/12/22 12:27:52;;;;;;;11.00;5.00;;;;;;;-8.19;70.60;140293.88;1843285;77;22589;-56
2021/12/22 12:30:48;;;;;;;10.35;5.37;;;;;;;-8.18;70.75;140296.33;1848153;77;22163;-56
2021/12/22 12:33:44;;;;;;;12.45;5.62;;;;;;;-8.05;71.23;140325.94;1809920;77;22184;-59
2021/12/22 12:36:34;;;;;;;10.23;4.47;;;;;;;-8.03;71.06;140330.88;1834964;77;22317;-56
2021/12/22 12:39:55;;;;;;;10.20;4.95;;;;;;;-8.08;70.91;140321.00;1853435;77;22156;-56
2021/12/22 12:43:09;;;;;;;;;;;;;;;;;;;;;
2021/12/22 12:45:48;;;;;;;11.35;5.08;;;;;;;-7.94;71.20;140353.06;1811799;77;22271;-57
2021/12/22 12:48:30;;;;;;;10.30;4.80;;;;;;;-7.87;70.20;140371.56;1835033;77;22156;-57
2021/12/22 12:51:34;;;;;;;9.15;4.50;;;;;;;-7.90;70.03;140362.94;1809415;77;22176;-56
2021/12/22 12:54:24;;;;;;;8.90;4.58;;;;;;;-7.92;70.14;140358.00;1800747;79;22569;-56
2021/12/22 12:57:23;;;;;;;9.33;4.83;;;;;;;-7.94;70.26;140353.06;1830529;77;22202;-57
2021/12/22 13:00:24;;;;;;;9.10;4.67;;;;;;;-8.00;70.04;140338.28;1833946;77;22188;-58